Trimble, Illinois
Current Conditions -  °F | °C
As of 7:15 AM on Sunday 23 Nov 2014 (Local Time) from KRSV Reporting Station
Scattered Clouds Scattered Clouds  
Wind Chill: 52°   Ceiling: Unl
Heat Index: 52°   Visibility: 10mi
Dew Point: 43°   Wind: 12mph
Humidity: 71%   Direction: 160°SSE
Pressure: 29.86"   Gusts: NA
Location:  39.0131°N, 87.7657°W
Report Text: KRSV 231315Z AUTO 16010KT 10SM SCT043 11/06 A2986 RMK AO2 T01120062
Loading
Personal Weather Stations






























Interactive Weather Map New forecast layout! Learn more

10-Day Weather Forecast

Advertisements
Track Severe Weather on mobile